sensor_id;sensor_type;location;lat;lon;timestamp;pressure;altitude;pressure_sealevel;temperature;humidity
70968;BME280;58629;48.808;8.820;2023-03-13T00:00:51;96649.00;;;4.53;96.97
70968;BME280;58629;48.808;8.820;2023-03-13T00:03:17;96648.22;;;4.56;97.59
70968;BME280;58629;48.808;8.820;2023-03-13T00:05:42;96643.34;;;4.58;97.93
70968;BME280;58629;48.808;8.820;2023-03-13T00:08:07;96641.47;;;4.62;97.95
70968;BME280;58629;48.808;8.820;2023-03-13T00:10:36;96648.97;;;4.67;98.52
70968;BME280;58629;48.808;8.820;2023-03-13T00:13:01;96648.56;;;4.72;98.16
70968;BME280;58629;48.808;8.820;2023-03-13T00:15:26;96641.81;;;4.78;98.70
70968;BME280;58629;48.808;8.820;2023-03-13T00:17:51;96642.53;;;4.82;98.08
70968;BME280;58629;48.808;8.820;2023-03-13T00:20:17;96641.81;;;4.81;97.71
70968;BME280;58629;48.808;8.820;2023-03-13T00:22:43;96641.03;;;4.84;98.07
70968;BME280;58629;48.808;8.820;2023-03-13T00:25:08;96639.53;;;4.87;98.19
70968;BME280;58629;48.808;8.820;2023-03-13T00:27:34;96633.16;;;4.88;97.67
70968;BME280;58629;48.808;8.820;2023-03-13T00:29:59;96639.91;;;4.89;97.70
70968;BME280;58629;48.808;8.820;2023-03-13T00:32:24;96632.41;;;4.91;97.78
70968;BME280;58629;48.808;8.820;2023-03-13T00:34:50;96626.03;;;4.92;97.62
70968;BME280;58629;48.808;8.820;2023-03-13T00:37:15;96624.53;;;4.94;97.72
70968;BME280;58629;48.808;8.820;2023-03-13T00:39:41;96615.50;;;4.95;97.75
70968;BME280;58629;48.808;8.820;2023-03-13T00:42:06;96615.88;;;5.01;97.92
70968;BME280;58629;48.808;8.820;2023-03-13T00:44:31;96618.09;;;5.06;97.81
70968;BME280;58629;48.808;8.820;2023-03-13T00:46:57;96610.94;;;5.10;98.08
70968;BME280;58629;48.808;8.820;2023-03-13T00:49:22;96605.69;;;5.13;98.28
70968;BME280;58629;48.808;8.820;2023-03-13T00:51:47;96609.44;;;5.16;98.22
70968;BME280;58629;48.808;8.820;2023-03-13T00:54:13;96606.78;;;5.19;98.22
70968;BME280;58629;48.808;8.820;2023-03-13T00:56:38;96608.66;;;5.22;97.81
70968;BME280;58629;48.808;8.820;2023-03-13T00:59:03;96598.13;;;5.26;97.45
70968;BME280;58629;48.808;8.820;2023-03-13T01:01:34;96597.75;;;5.27;97.71
70968;BME280;58629;48.808;8.820;2023-03-13T01:04:05;96596.22;;;5.30;97.39
70968;BME280;58629;48.808;8.820;2023-03-13T01:06:32;96593.59;;;5.30;97.61
70968;BME280;58629;48.808;8.820;2023-03-13T01:08:58;96588.72;;;5.32;97.92
70968;BME280;58629;48.808;8.820;2023-03-13T01:11:26;96586.81;;;5.36;98.12
70968;BME280;58629;48.808;8.820;2023-03-13T01:13:54;96581.53;;;5.40;98.06
70968;BME280;58629;48.808;8.820;2023-03-13T01:16:20;96575.13;;;5.44;98.25
70968;BME280;58629;48.808;8.820;2023-03-13T01:18:51;96571.00;;;5.47;98.12
70968;BME280;58629;48.808;8.820;2023-03-13T01:21:19;96564.19;;;5.53;97.60
70968;BME280;58629;48.808;8.820;2023-03-13T01:23:46;96551.41;;;5.58;97.68
70968;BME280;58629;48.808;8.820;2023-03-13T01:26:11;96550.97;;;5.63;97.76
70968;BME280;58629;48.808;8.820;2023-03-13T01:28:38;96555.84;;;5.68;97.07
70968;BME280;58629;48.808;8.820;2023-03-13T01:31:15;96545.56;;;5.84;96.81
70968;BME280;58629;48.808;8.820;2023-03-13T01:33:41;96530.91;;;5.87;95.89
70968;BME280;58629;48.808;8.820;2023-03-13T01:36:07;96533.16;;;5.88;95.79
70968;BME280;58629;48.808;8.820;2023-03-13T01:38:33;96531.28;;;5.89;95.88
70968;BME280;58629;48.808;8.820;2023-03-13T01:40:58;96516.63;;;5.91;95.81
70968;BME280;58629;48.808;8.820;2023-03-13T01:43:29;96525.97;;;5.92;95.48
70968;BME280;58629;48.808;8.820;2023-03-13T01:54:14;96497.38;;;6.01;95.63
70968;BME280;58629;48.808;8.820;2023-03-13T01:57:00;96493.59;;;6.06;95.07
70968;BME280;58629;48.808;8.820;2023-03-13T01:59:39;96482.59;;;6.14;94.49
70968;BME280;58629;48.808;8.820;2023-03-13T02:02:06;96479.56;;;6.16;94.40
70968;BME280;58629;48.808;8.820;2023-03-13T02:04:37;96476.16;;;6.19;94.60
70968;BME280;58629;48.808;8.820;2023-03-13T02:07:06;96478.00;;;6.22;94.40
70968;BME280;58629;48.808;8.820;2023-03-13T02:09:34;96473.06;;;6.28;94.07
70968;BME280;58629;48.808;8.820;2023-03-13T02:12:08;96470.81;;;6.26;94.36
70968;BME280;58629;48.808;8.820;2023-03-13T02:14:36;96469.34;;;6.25;94.32
70968;BME280;58629;48.808;8.820;2023-03-13T02:17:03;96468.19;;;6.26;94.28
70968;BME280;58629;48.808;8.820;2023-03-13T02:19:52;96465.19;;;6.28;93.98
70968;BME280;58629;48.808;8.820;2023-03-13T02:25:00;96449.47;;;6.51;94.09
70968;BME280;58629;48.808;8.820;2023-03-13T02:27:30;96443.59;;;6.70;93.40
70968;BME280;58629;48.808;8.820;2023-03-13T02:29:56;96453.88;;;6.87;93.34
70968;BME280;58629;48.808;8.820;2023-03-13T02:32:22;96450.03;;;7.19;91.81
70968;BME280;58629;48.808;8.820;2023-03-13T02:34:50;96442.13;;;7.42;90.44
70968;BME280;58629;48.808;8.820;2023-03-13T02:37:18;96446.47;;;7.52;90.97
70968;BME280;58629;48.808;8.820;2023-03-13T02:39:46;96439.38;;;7.72;90.44
70968;BME280;58629;48.808;8.820;2023-03-13T02:42:14;96432.00;;;8.03;88.71
70968;BME280;58629;48.808;8.820;2023-03-13T02:44:42;96422.03;;;8.14;88.69
70968;BME280;58629;48.808;8.820;2023-03-13T02:47:08;96422.75;;;8.14;88.84
70968;BME280;58629;48.808;8.820;2023-03-13T02:49:34;96413.63;;;8.19;89.11
70968;BME280;58629;48.808;8.820;2023-03-13T02:52:40;96400.59;;;8.31;89.28
70968;BME280;58629;48.808;8.820;2023-03-13T02:55:09;96398.38;;;8.30;89.47
70968;BME280;58629;48.808;8.820;2023-03-13T02:57:36;96393.19;;;8.42;88.77
70968;BME280;58629;48.808;8.820;2023-03-13T03:00:03;96393.91;;;8.62;88.49
70968;BME280;58629;48.808;8.820;2023-03-13T03:02:31;96383.34;;;8.62;89.08
70968;BME280;58629;48.808;8.820;2023-03-13T03:04:56;96373.09;;;8.64;89.34
70968;BME280;58629;48.808;8.820;2023-03-13T03:07:21;96372.22;;;8.71;89.25
70968;BME280;58629;48.808;8.820;2023-03-13T03:09:47;96370.81;;;8.83;88.62
70968;BME280;58629;48.808;8.820;2023-03-13T03:12:12;96369.50;;;8.74;88.90
70968;BME280;58629;48.808;8.820;2023-03-13T03:14:37;96357.03;;;8.75;89.04
70968;BME280;58629;48.808;8.820;2023-03-13T03:17:03;96365.28;;;8.77;89.57
70968;BME280;58629;48.808;8.820;2023-03-13T03:19:28;96361.81;;;8.80;89.91
70968;BME280;58629;48.808;8.820;2023-03-13T03:21:53;96349.84;;;8.75;89.72
70968;BME280;58629;48.808;8.820;2023-03-13T03:24:18;96362.91;;;8.83;89.98
70968;BME280;58629;48.808;8.820;2023-03-13T03:26:44;96363.97;;;8.85;90.45
70968;BME280;58629;48.808;8.820;2023-03-13T03:29:09;96351.25;;;8.96;89.67
70968;BME280;58629;48.808;8.820;2023-03-13T03:31:35;96351.50;;;9.02;89.51
70968;BME280;58629;48.808;8.820;2023-03-13T03:34:00;96353.91;;;8.96;90.47
70968;BME280;58629;48.808;8.820;2023-03-13T03:36:26;96354.97;;;8.99;90.08
70968;BME280;58629;48.808;8.820;2023-03-13T03:38:51;96361.47;;;9.10;89.89
70968;BME280;58629;48.808;8.820;2023-03-13T03:41:17;96346.78;;;9.09;90.37
70968;BME280;58629;48.808;8.820;2023-03-13T03:43:43;96358.31;;;9.15;89.37
70968;BME280;58629;48.808;8.820;2023-03-13T03:46:09;96363.69;;;9.12;89.97
70968;BME280;58629;48.808;8.820;2023-03-13T03:48:34;96363.47;;;9.06;90.41
70968;BME280;58629;48.808;8.820;2023-03-13T03:51:00;96360.66;;;9.13;90.62
70968;BME280;58629;48.808;8.820;2023-03-13T03:53:25;96351.41;;;9.05;91.36
70968;BME280;58629;48.808;8.820;2023-03-13T03:55:52;96347.19;;;9.08;91.31
70968;BME280;58629;48.808;8.820;2023-03-13T03:58:17;96349.69;;;9.15;91.32
70968;BME280;58629;48.808;8.820;2023-03-13T04:00:43;96350.25;;;9.06;91.76
70968;BME280;58629;48.808;8.820;2023-03-13T04:03:09;96349.28;;;9.00;93.05
70968;BME280;58629;48.808;8.820;2023-03-13T04:05:34;96355.63;;;9.03;92.78
70968;BME280;58629;48.808;8.820;2023-03-13T04:08:00;96354.31;;;8.95;94.20
70968;BME280;58629;48.808;8.820;2023-03-13T04:10:25;96353.00;;;8.87;94.17
70968;BME280;58629;48.808;8.820;2023-03-13T04:12:50;96343.75;;;8.95;94.92
70968;BME280;58629;48.808;8.820;2023-03-13T04:15:15;96340.28;;;8.98;94.96
70968;BME280;58629;48.808;8.820;2023-03-13T04:17:41;96346.81;;;8.93;94.96
70968;BME280;58629;48.808;8.820;2023-03-13T04:20:06;96336.81;;;9.01;94.14
70968;BME280;58629;48.808;8.820;2023-03-13T04:22:32;96339.22;;;8.95;94.85
70968;BME280;58629;48.808;8.820;2023-03-13T04:24:59;96342.19;;;8.97;95.27
70968;BME280;58629;48.808;8.820;2023-03-13T04:27:24;96332.78;;;8.96;95.23
70968;BME280;58629;48.808;8.820;2023-03-13T04:29:49;96333.09;;;8.98;95.54
70968;BME280;58629;48.808;8.820;2023-03-13T04:32:15;96336.50;;;8.99;95.57
70968;BME280;58629;48.808;8.820;2023-03-13T04:34:40;96337.25;;;8.99;95.45
70968;BME280;58629;48.808;8.820;2023-03-13T04:37:05;96324.03;;;8.99;96.07
70968;BME280;58629;48.808;8.820;2023-03-13T04:39:30;96323.63;;;9.01;96.72
70968;BME280;58629;48.808;8.820;2023-03-13T04:41:56;96327.00;;;9.01;96.14
70968;BME280;58629;48.808;8.820;2023-03-13T04:44:21;96312.72;;;8.99;96.34
70968;BME280;58629;48.808;8.820;2023-03-13T04:46:47;96310.00;;;9.02;96.66
70968;BME280;58629;48.808;8.820;2023-03-13T04:49:13;96320.31;;;9.13;96.71
70968;BME280;58629;48.808;8.820;2023-03-13T04:51:40;96323.00;;;9.09;96.28
70968;BME280;58629;48.808;8.820;2023-03-13T04:54:05;96310.97;;;9.08;96.90
70968;BME280;58629;48.808;8.820;2023-03-13T04:56:30;96313.34;;;9.19;96.67
70968;BME280;58629;48.808;8.820;2023-03-13T04:58:56;96312.84;;;9.24;95.95
70968;BME280;58629;48.808;8.820;2023-03-13T05:01:21;96316.66;;;9.23;96.38
70968;BME280;58629;48.808;8.820;2023-03-13T05:03:46;96311.84;;;9.18;96.45
70968;BME280;58629;48.808;8.820;2023-03-13T05:06:12;96308.16;;;9.15;96.44
70968;BME280;58629;48.808;8.820;2023-03-13T05:08:37;96303.94;;;9.18;96.44
70968;BME280;58629;48.808;8.820;2023-03-13T05:11:03;96304.50;;;9.25;97.07
70968;BME280;58629;48.808;8.820;2023-03-13T05:13:28;96306.75;;;9.27;96.27
70968;BME280;58629;48.808;8.820;2023-03-13T05:15:53;96321.56;;;9.37;95.80
70968;BME280;58629;48.808;8.820;2023-03-13T05:18:19;96315.66;;;9.45;95.24
70968;BME280;58629;48.808;8.820;2023-03-13T05:20:44;96324.44;;;9.42;95.58
70968;BME280;58629;48.808;8.820;2023-03-13T05:23:09;96305.09;;;9.45;95.01
70968;BME280;58629;48.808;8.820;2023-03-13T05:25:34;96315.81;;;9.54;94.77
70968;BME280;58629;48.808;8.820;2023-03-13T05:28:00;96303.16;;;9.62;94.29
70968;BME280;58629;48.808;8.820;2023-03-13T05:30:26;96298.28;;;9.60;94.67
70968;BME280;58629;48.808;8.820;2023-03-13T05:32:51;96304.41;;;9.57;94.69
70968;BME280;58629;48.808;8.820;2023-03-13T05:35:17;96300.28;;;9.56;95.73
70968;BME280;58629;48.808;8.820;2023-03-13T05:37:42;96303.25;;;9.58;96.01
70968;BME280;58629;48.808;8.820;2023-03-13T05:40:08;96295.72;;;9.57;96.54
70968;BME280;58629;48.808;8.820;2023-03-13T05:42:34;96295.72;;;9.57;96.35
70968;BME280;58629;48.808;8.820;2023-03-13T05:44:59;96283.69;;;9.56;96.51
70968;BME280;58629;48.808;8.820;2023-03-13T05:47:24;96285.78;;;9.61;95.69
70968;BME280;58629;48.808;8.820;2023-03-13T05:49:49;96285.56;;;9.55;95.34
70968;BME280;58629;48.808;8.820;2023-03-13T05:52:15;96295.41;;;9.55;95.60
70968;BME280;58629;48.808;8.820;2023-03-13T05:54:40;96298.69;;;9.59;96.27
70968;BME280;58629;48.808;8.820;2023-03-13T05:57:05;96301.47;;;9.68;95.21
70968;BME280;58629;48.808;8.820;2023-03-13T05:59:31;96314.91;;;9.74;95.07
70968;BME280;58629;48.808;8.820;2023-03-13T06:01:56;96306.34;;;9.70;94.64
70968;BME280;58629;48.808;8.820;2023-03-13T06:04:21;96298.09;;;9.68;94.49
70968;BME280;58629;48.808;8.820;2023-03-13T06:06:47;96296.41;;;9.74;94.86
70968;BME280;58629;48.808;8.820;2023-03-13T06:09:12;96302.84;;;9.73;95.33
70968;BME280;58629;48.808;8.820;2023-03-13T06:11:37;96300.84;;;9.77;94.63
70968;BME280;58629;48.808;8.820;2023-03-13T06:14:03;96295.38;;;9.84;95.11
70968;BME280;58629;48.808;8.820;2023-03-13T06:16:28;96286.81;;;9.92;93.41
70968;BME280;58629;48.808;8.820;2023-03-13T06:18:53;96284.91;;;9.93;94.09
70968;BME280;58629;48.808;8.820;2023-03-13T06:21:19;96287.47;;;9.96;94.09
70968;BME280;58629;48.808;8.820;2023-03-13T06:23:44;96285.97;;;9.95;93.58
70968;BME280;58629;48.808;8.820;2023-03-13T06:26:09;96279.75;;;10.14;93.80
70968;BME280;58629;48.808;8.820;2023-03-13T06:28:34;96279.13;;;10.10;93.49
70968;BME280;58629;48.808;8.820;2023-03-13T06:31:02;96274.47;;;10.14;93.34
70968;BME280;58629;48.808;8.820;2023-03-13T06:33:27;96293.63;;;10.18;93.17
70968;BME280;58629;48.808;8.820;2023-03-13T06:35:53;96288.56;;;10.24;93.34
70968;BME280;58629;48.808;8.820;2023-03-13T06:38:18;96279.88;;;10.36;92.64
70968;BME280;58629;48.808;8.820;2023-03-13T06:40:43;96299.25;;;10.33;92.36
70968;BME280;58629;48.808;8.820;2023-03-13T06:43:08;96299.88;;;10.37;92.13
70968;BME280;58629;48.808;8.820;2023-03-13T06:45:35;96300.00;;;10.33;92.55
70968;BME280;58629;48.808;8.820;2023-03-13T06:48:01;96301.47;;;10.34;92.64
70968;BME280;58629;48.808;8.820;2023-03-13T06:50:26;96298.94;;;10.31;92.30
70968;BME280;58629;48.808;8.820;2023-03-13T06:52:52;96309.94;;;10.42;92.78
70968;BME280;58629;48.808;8.820;2023-03-13T06:55:17;96307.81;;;10.37;93.11
70968;BME280;58629;48.808;8.820;2023-03-13T06:57:42;96309.09;;;10.32;93.66
70968;BME280;58629;48.808;8.820;2023-03-13T07:00:09;96306.31;;;10.36;93.95
70968;BME280;58629;48.808;8.820;2023-03-13T07:02:35;96308.47;;;10.41;93.74
70968;BME280;58629;48.808;8.820;2023-03-13T07:05:00;96313.88;;;10.37;94.25
70968;BME280;58629;48.808;8.820;2023-03-13T07:07:30;96320.19;;;10.40;94.13
70968;BME280;58629;48.808;8.820;2023-03-13T07:09:57;96307.59;;;10.44;93.80
70968;BME280;58629;48.808;8.820;2023-03-13T07:12:22;96308.88;;;10.52;94.53
70968;BME280;58629;48.808;8.820;2023-03-13T07:14:47;96309.19;;;10.54;93.60
70968;BME280;58629;48.808;8.820;2023-03-13T07:17:12;96299.47;;;10.51;93.61
70968;BME280;58629;48.808;8.820;2023-03-13T07:19:38;96299.03;;;10.53;93.81
70968;BME280;58629;48.808;8.820;2023-03-13T07:22:03;96284.84;;;10.59;93.55
70968;BME280;58629;48.808;8.820;2023-03-13T07:24:28;96286.00;;;10.58;93.04
70968;BME280;58629;48.808;8.820;2023-03-13T07:26:54;96287.16;;;10.57;93.26
70968;BME280;58629;48.808;8.820;2023-03-13T07:29:19;96284.53;;;10.57;93.96
70968;BME280;58629;48.808;8.820;2023-03-13T07:31:44;96293.94;;;10.71;92.46
70968;BME280;58629;48.808;8.820;2023-03-13T07:34:09;96287.34;;;10.75;92.34
70968;BME280;58629;48.808;8.820;2023-03-13T07:36:35;96299.22;;;10.71;92.41
70968;BME280;58629;48.808;8.820;2023-03-13T07:39:00;96282.56;;;10.83;91.40
70968;BME280;58629;48.808;8.820;2023-03-13T07:41:26;96275.63;;;10.98;91.38
70968;BME280;58629;48.808;8.820;2023-03-13T07:43:51;96282.94;;;11.06;90.04
70968;BME280;58629;48.808;8.820;2023-03-13T07:46:18;96289.81;;;11.04;90.39
70968;BME280;58629;48.808;8.820;2023-03-13T07:48:44;96291.81;;;11.12;89.43
70968;BME280;58629;48.808;8.820;2023-03-13T07:51:13;96277.47;;;11.22;88.90
70968;BME280;58629;48.808;8.820;2023-03-13T07:53:39;96274.56;;;11.29;88.46
70968;BME280;58629;48.808;8.820;2023-03-13T07:56:10;96254.28;;;11.35;88.46
70968;BME280;58629;48.808;8.820;2023-03-13T07:58:36;96250.22;;;11.44;87.72
70968;BME280;58629;48.808;8.820;2023-03-13T08:03:34;96243.19;;;11.50;87.44
70968;BME280;58629;48.808;8.820;2023-03-13T08:06:02;96225.81;;;11.70;86.26
70968;BME280;58629;48.808;8.820;2023-03-13T08:08:28;96242.88;;;11.69;85.92
70968;BME280;58629;48.808;8.820;2023-03-13T08:11:05;96245.03;;;11.83;85.05
70968;BME280;58629;48.808;8.820;2023-03-13T08:13:31;96245.19;;;11.89;85.40
70968;BME280;58629;48.808;8.820;2023-03-13T08:16:08;96245.78;;;11.84;85.55
70968;BME280;58629;48.808;8.820;2023-03-13T08:18:35;96245.78;;;11.84;85.23
70968;BME280;58629;48.808;8.820;2023-03-13T08:21:05;96258.16;;;11.87;85.56
70968;BME280;58629;48.808;8.820;2023-03-13T08:23:31;96265.25;;;11.90;85.04
70968;BME280;58629;48.808;8.820;2023-03-13T08:28:28;96254.06;;;11.95;85.60
70968;BME280;58629;48.808;8.820;2023-03-13T08:30:53;96252.19;;;12.04;84.02
70968;BME280;58629;48.808;8.820;2023-03-13T08:33:18;96261.63;;;12.05;83.67
70968;BME280;58629;48.808;8.820;2023-03-13T08:35:44;96269.22;;;12.16;84.30
70968;BME280;58629;48.808;8.820;2023-03-13T08:38:09;96270.97;;;12.19;83.36
70968;BME280;58629;48.808;8.820;2023-03-13T08:40:34;96283.81;;;12.20;83.04
70968;BME280;58629;48.808;8.820;2023-03-13T08:43:00;96285.31;;;12.22;82.95
70968;BME280;58629;48.808;8.820;2023-03-13T08:45:25;96282.81;;;12.27;82.55
70968;BME280;58629;48.808;8.820;2023-03-13T08:47:53;96286.22;;;12.28;81.67
70968;BME280;58629;48.808;8.820;2023-03-13T08:50:19;96282.56;;;12.43;81.72
70968;BME280;58629;48.808;8.820;2023-03-13T08:52:44;96284.31;;;12.37;82.51
70968;BME280;58629;48.808;8.820;2023-03-13T08:55:09;96287.44;;;12.45;82.08
70968;BME280;58629;48.808;8.820;2023-03-13T08:57:35;96278.00;;;12.44;82.01
70968;BME280;58629;48.808;8.820;2023-03-13T09:00:00;96279.63;;;12.41;81.74
70968;BME280;58629;48.808;8.820;2023-03-13T09:02:25;96301.63;;;12.51;80.52
70968;BME280;58629;48.808;8.820;2023-03-13T09:04:51;96279.22;;;12.52;80.24
70968;BME280;58629;48.808;8.820;2023-03-13T09:07:16;96288.41;;;12.69;78.88
70968;BME280;58629;48.808;8.820;2023-03-13T09:09:42;96281.47;;;12.80;77.57
70968;BME280;58629;48.808;8.820;2023-03-13T09:12:07;96288.19;;;13.12;76.59
70968;BME280;58629;48.808;8.820;2023-03-13T09:14:33;96278.88;;;13.44;74.84
70968;BME280;58629;48.808;8.820;2023-03-13T09:16:58;96283.53;;;13.85;76.66
70968;BME280;58629;48.808;8.820;2023-03-13T09:19:23;96298.63;;;13.79;75.00
70968;BME280;58629;48.808;8.820;2023-03-13T09:21:49;96298.81;;;13.66;73.67
70968;BME280;58629;48.808;8.820;2023-03-13T09:24:14;96297.78;;;13.55;74.73
70968;BME280;58629;48.808;8.820;2023-03-13T09:26:40;96299.88;;;13.42;75.85
70968;BME280;58629;48.808;8.820;2023-03-13T09:29:05;96299.88;;;13.42;74.77
70968;BME280;58629;48.808;8.820;2023-03-13T09:31:31;96307.41;;;13.43;75.39
70968;BME280;58629;48.808;8.820;2023-03-13T09:33:57;96302.81;;;13.44;74.93
70968;BME280;58629;48.808;8.820;2023-03-13T09:36:24;96298.53;;;13.55;75.66
70968;BME280;58629;48.808;8.820;2023-03-13T09:38:51;96287.00;;;13.58;75.78
70968;BME280;58629;48.808;8.820;2023-03-13T09:46:32;96250.63;;;14.15;73.75
70968;BME280;58629;48.808;8.820;2023-03-13T09:49:04;96264.41;;;14.05;74.90
70968;BME280;58629;48.808;8.820;2023-03-13T09:51:37;96256.94;;;14.36;73.83
70968;BME280;58629;48.808;8.820;2023-03-13T09:54:21;96259.38;;;14.72;74.20
70968;BME280;58629;48.808;8.820;2023-03-13T09:56:57;96255.13;;;15.13;72.37
70968;BME280;58629;48.808;8.820;2023-03-13T10:02:30;96236.16;;;15.78;70.54
70968;BME280;58629;48.808;8.820;2023-03-13T10:05:16;96227.75;;;16.00;69.58
70968;BME280;58629;48.808;8.820;2023-03-13T10:07:43;96232.03;;;16.26;69.58
70968;BME280;58629;48.808;8.820;2023-03-13T10:13:35;96220.38;;;16.09;67.95
70968;BME280;58629;48.808;8.820;2023-03-13T10:18:47;96216.84;;;15.69;68.10
70968;BME280;58629;48.808;8.820;2023-03-13T10:21:19;96222.72;;;15.43;68.68
70968;BME280;58629;48.808;8.820;2023-03-13T10:24:05;96222.03;;;15.34;68.73
70968;BME280;58629;48.808;8.820;2023-03-13T10:26:36;96210.88;;;15.06;68.12
70968;BME280;58629;48.808;8.820;2023-03-13T10:29:28;96215.09;;;14.98;70.54
70968;BME280;58629;48.808;8.820;2023-03-13T10:32:01;96217.25;;;14.85;69.95
70968;BME280;58629;48.808;8.820;2023-03-13T10:34:57;96217.50;;;14.72;69.93
70968;BME280;58629;48.808;8.820;2023-03-13T10:37:29;96222.25;;;14.68;70.55
70968;BME280;58629;48.808;8.820;2023-03-13T10:40:18;96216.75;;;14.72;70.20
70968;BME280;58629;48.808;8.820;2023-03-13T10:42:44;96207.34;;;14.62;71.00
70968;BME280;58629;48.808;8.820;2023-03-13T10:45:14;96197.13;;;14.60;70.38
70968;BME280;58629;48.808;8.820;2023-03-13T10:47:40;96200.09;;;14.62;70.94
70968;BME280;58629;48.808;8.820;2023-03-13T10:50:06;96190.44;;;14.89;69.55
70968;BME280;58629;48.808;8.820;2023-03-13T10:52:41;96197.97;;;14.90;70.71
70968;BME280;58629;48.808;8.820;2023-03-13T10:55:22;96188.28;;;14.78;71.03
70968;BME280;58629;48.808;8.820;2023-03-13T11:00:28;96184.56;;;14.61;71.24
70968;BME280;58629;48.808;8.820;2023-03-13T11:02:55;96179.16;;;14.46;70.60
70968;BME280;58629;48.808;8.820;2023-03-13T11:05:39;96177.25;;;14.47;71.25
70968;BME280;58629;48.808;8.820;2023-03-13T11:10:58;96159.03;;;14.69;69.70
70968;BME280;58629;48.808;8.820;2023-03-13T11:13:41;96151.00;;;14.54;70.29
70968;BME280;58629;48.808;8.820;2023-03-13T11:16:23;96148.34;;;14.54;71.14
70968;BME280;58629;48.808;8.820;2023-03-13T11:24:07;96127.19;;;15.04;69.28
70968;BME280;58629;48.808;8.820;2023-03-13T11:26:40;96129.97;;;15.09;68.74
70968;BME280;58629;48.808;8.820;2023-03-13T11:29:21;96121.22;;;15.38;68.73
70968;BME280;58629;48.808;8.820;2023-03-13T11:31:55;96108.16;;;15.40;66.76
70968;BME280;58629;48.808;8.820;2023-03-13T11:37:01;96103.16;;;15.77;66.54
70968;BME280;58629;48.808;8.820;2023-03-13T11:39:42;96090.59;;;15.83;67.30
70968;BME280;58629;48.808;8.820;2023-03-13T11:45:27;96075.47;;;15.74;66.71
70968;BME280;58629;48.808;8.820;2023-03-13T11:48:03;96072.09;;;15.94;66.45
70968;BME280;58629;48.808;8.820;2023-03-13T11:53:26;96048.84;;;16.00;66.98
70968;BME280;58629;48.808;8.820;2023-03-13T11:56:24;96051.31;;;16.03;66.63
70968;BME280;58629;48.808;8.820;2023-03-13T11:59:01;96057.94;;;16.08;66.21
70968;BME280;58629;48.808;8.820;2023-03-13T12:01:36;96051.13;;;16.07;66.72
70968;BME280;58629;48.808;8.820;2023-03-13T12:04:17;96039.34;;;16.19;66.17
70968;BME280;58629;48.808;8.820;2023-03-13T12:06:53;96033.94;;;16.33;65.59
70968;BME280;58629;48.808;8.820;2023-03-13T12:09:32;96013.69;;;16.47;65.04
70968;BME280;58629;48.808;8.820;2023-03-13T12:12:14;96008.78;;;16.91;66.15
70968;BME280;58629;48.808;8.820;2023-03-13T12:17:37;95987.69;;;17.41;61.24
70968;BME280;58629;48.808;8.820;2023-03-13T12:20:14;95975.47;;;17.71;61.07
70968;BME280;58629;48.808;8.820;2023-03-13T12:22:57;95965.75;;;17.74;60.16
70968;BME280;58629;48.808;8.820;2023-03-13T12:25:29;95958.06;;;17.92;60.20
70968;BME280;58629;48.808;8.820;2023-03-13T12:30:47;95943.31;;;18.52;60.20
70968;BME280;58629;48.808;8.820;2023-03-13T12:33:23;95928.00;;;18.64;57.09
70968;BME280;58629;48.808;8.820;2023-03-13T12:36:03;95932.13;;;18.87;58.34
70968;BME280;58629;48.808;8.820;2023-03-13T12:38:53;95917.97;;;19.03;55.79
70968;BME280;58629;48.808;8.820;2023-03-13T12:41:35;95907.94;;;19.15;56.34
70968;BME280;58629;48.808;8.820;2023-03-13T12:44:08;95894.97;;;19.24;54.62
70968;BME280;58629;48.808;8.820;2023-03-13T12:46:40;95888.19;;;19.12;54.73
70968;BME280;58629;48.808;8.820;2023-03-13T12:49:56;95888.66;;;19.33;55.76
70968;BME280;58629;48.808;8.820;2023-03-13T12:52:46;95881.81;;;19.10;53.66
70968;BME280;58629;48.808;8.820;2023-03-13T13:00:34;95863.09;;;18.98;55.15
70968;BME280;58629;48.808;8.820;2023-03-13T13:03:19;95858.72;;;18.95;54.01
70968;BME280;58629;48.808;8.820;2023-03-13T13:06:02;95845.25;;;19.12;55.16
70968;BME280;58629;48.808;8.820;2023-03-13T13:08:33;95851.78;;;19.33;55.12
70968;BME280;58629;48.808;8.820;2023-03-13T13:14:00;95828.44;;;19.06;52.88
70968;BME280;58629;48.808;8.820;2023-03-13T13:16:26;95829.94;;;18.90;55.30
70968;BME280;58629;48.808;8.820;2023-03-13T13:18:52;95821.84;;;19.01;53.86
70968;BME280;58629;48.808;8.820;2023-03-13T13:21:22;95816.53;;;18.85;52.16
70968;BME280;58629;48.808;8.820;2023-03-13T13:23:52;95811.63;;;18.94;53.22
70968;BME280;58629;48.808;8.820;2023-03-13T13:28:54;95795.97;;;19.10;51.95
70968;BME280;58629;48.808;8.820;2023-03-13T13:36:52;95780.47;;;19.49;52.42
70968;BME280;58629;48.808;8.820;2023-03-13T13:41:58;95765.97;;;19.05;51.92
70968;BME280;58629;48.808;8.820;2023-03-13T13:44:26;95768.13;;;19.18;52.46
70968;BME280;58629;48.808;8.820;2023-03-13T13:46:54;95771.84;;;19.04;52.39
70968;BME280;58629;48.808;8.820;2023-03-13T13:49:22;95758.97;;;18.97;52.88
70968;BME280;58629;48.808;8.820;2023-03-13T13:56:59;95750.78;;;18.67;52.13
70968;BME280;58629;48.808;8.820;2023-03-13T13:59:33;95743.13;;;18.88;52.34
70968;BME280;58629;48.808;8.820;2023-03-13T14:05:07;95729.34;;;19.19;51.92
70968;BME280;58629;48.808;8.820;2023-03-13T14:07:42;95739.72;;;18.87;52.16
70968;BME280;58629;48.808;8.820;2023-03-13T14:12:56;95714.66;;;18.68;52.34
70968;BME280;58629;48.808;8.820;2023-03-13T14:15:29;95703.34;;;18.92;53.13
70968;BME280;58629;48.808;8.820;2023-03-13T14:17:58;95704.59;;;18.91;52.90
70968;BME280;58629;48.808;8.820;2023-03-13T14:23:09;95699.31;;;19.21;51.54
70968;BME280;58629;48.808;8.820;2023-03-13T14:25:49;95693.25;;;19.55;51.58
70968;BME280;58629;48.808;8.820;2023-03-13T14:28:26;95688.00;;;19.74;50.25
70968;BME280;58629;48.808;8.820;2023-03-13T14:30:55;95672.22;;;19.95;51.20
70968;BME280;58629;48.808;8.820;2023-03-13T14:33:21;95674.50;;;20.09;49.55
70968;BME280;58629;48.808;8.820;2023-03-13T14:35:47;95671.63;;;20.31;49.73
70968;BME280;58629;48.808;8.820;2023-03-13T14:38:21;95665.00;;;20.32;48.77
70968;BME280;58629;48.808;8.820;2023-03-13T14:40:48;95647.28;;;20.42;48.06